Time;durP1;ratioP1;P1;durP2;ratioP2;P2;SDS_P1;SDS_P2;PMS_P1;PMS_P2;Temp;Humidity;BMP_temperature;BMP_pressure;BME280_temperature;BME280_humidity;BME280_pressure;Samples;Min_cycle;Max_cycle;Signal;HPM_P1;HPM_P2
2023/07/28 00:00:57;;;;;;;38.85;14.80;;;;;;;29.04;66.95;100451.63;5045038;28;70223;-39
2023/07/28 00:03:28;;;;;;;44.58;15.02;;;;;;;29.10;67.76;100462.38;5062361;28;65834;-38
2023/07/28 00:06:00;;;;;;;38.37;15.10;;;;;;;29.13;67.90;100463.81;5059668;28;70427;-39
2023/07/28 00:08:32;;;;;;;34.40;14.35;;;;;;;29.17;67.77;100478.53;5061368;28;63924;-40
2023/07/28 00:11:03;;;;;;;43.40;13.65;;;;;;;29.23;68.22;100477.66;5057452;28;71178;-40
2023/07/28 00:13:35;;;;;;;41.33;14.05;;;;;;;29.28;68.27;100467.03;5062325;28;65798;-40
2023/07/28 00:16:06;;;;;;;39.88;13.32;;;;;;;29.28;68.48;100472.44;5058348;28;69586;-40
2023/07/28 00:18:38;;;;;;;39.70;12.57;;;;;;;29.30;69.92;100480.31;5057190;28;66194;-39
2023/07/28 00:21:09;;;;;;;31.27;12.45;;;;;;;29.29;70.12;100484.06;5056501;28;70476;-40
2023/07/28 00:23:41;;;;;;;25.63;11.32;;;;;;;29.35;70.03;100489.41;5060055;28;66148;-40
2023/07/28 00:26:12;;;;;;;21.35;11.38;;;;;;;29.40;70.36;100486.88;5059399;28;69562;-40
2023/07/28 00:28:44;;;;;;;19.42;10.90;;;;;;;29.30;70.04;100459.53;5061420;28;66588;-40
2023/07/28 00:31:16;;;;;;;25.83;10.40;;;;;;;29.48;70.38;100493.06;5056998;28;70262;-42
2023/07/28 00:33:48;;;;;;;25.33;10.18;;;;;;;29.52;70.13;100488.88;5052556;28;65501;-40
2023/07/28 00:36:20;;;;;;;27.33;10.50;;;;;;;29.54;70.23;100492.19;5057323;28;69202;-39
2023/07/28 00:38:52;;;;;;;21.63;9.68;;;;;;;29.45;69.99;100478.13;5038817;28;66192;-40
2023/07/28 00:41:25;;;;;;;25.45;8.90;;;;;;;29.61;70.56;100492.94;5057454;28;69318;-40
2023/07/28 00:43:57;;;;;;;28.77;9.55;;;;;;;29.62;70.27;100500.03;5058632;28;66176;-41
2023/07/28 00:46:28;;;;;;;28.35;9.65;;;;;;;29.64;70.80;100492.53;5055632;28;69852;-39
2023/07/28 00:49:01;;;;;;;21.50;8.23;;;;;;;29.63;70.40;100493.59;5056905;28;65344;-40
2023/07/28 00:51:33;;;;;;;23.73;9.13;;;;;;;29.65;70.72;100477.16;5049230;28;70131;-40
2023/07/28 00:54:08;;;;;;;15.85;8.25;;;;;;;29.70;70.49;100488.97;5058933;28;65953;-44
2023/07/28 00:56:39;;;;;;;23.08;8.13;;;;;;;29.58;70.29;100469.88;5058048;28;69416;-41
2023/07/28 00:59:11;;;;;;;19.30;8.48;;;;;;;29.73;70.61;100493.09;5047767;28;65822;-41
2023/07/28 01:01:43;;;;;;;17.20;8.40;;;;;;;29.72;70.64;100484.13;5050212;28;70439;-40
2023/07/28 01:04:15;;;;;;;13.88;7.72;;;;;;;29.77;70.61;100486.19;5047008;28;66592;-40
2023/07/28 01:06:46;;;;;;;14.18;7.60;;;;;;;29.75;70.53;100489.09;5044212;28;69541;-43
2023/07/28 01:09:24;;;;;;;20.40;8.65;;;;;;;29.76;69.98;100507.00;5053696;28;66265;-40
2023/07/28 01:11:57;;;;;;;11.60;7.40;;;;;;;29.79;70.36;100506.56;5052413;28;69956;-41
2023/07/28 01:14:29;;;;;;;15.15;7.30;;;;;;;29.78;70.60;100491.38;5044253;28;67017;-40
2023/07/28 01:17:00;;;;;;;12.15;7.70;;;;;;;29.79;70.00;100490.31;5044901;28;70011;-40
2023/07/28 01:19:32;;;;;;;15.85;7.38;;;;;;;29.80;70.10;100491.16;5039540;28;65433;-39
2023/07/28 01:22:35;;;;;;;11.93;7.28;;;;;;;29.69;70.52;100495.41;5043696;28;69370;-39
2023/07/28 01:25:16;;;;;;;12.43;7.03;;;;;;;29.78;69.80;100491.38;5034529;28;66507;-40
2023/07/28 01:27:49;;;;;;;13.30;6.03;;;;;;;29.88;69.89;100493.56;5055612;28;70329;-40
2023/07/28 01:30:21;;;;;;;11.90;6.80;;;;;;;29.88;70.15;100495.44;5042904;28;65454;-40
2023/07/28 01:32:55;;;;;;;13.32;6.88;;;;;;;29.87;69.90;100486.53;5058850;28;70394;-40
2023/07/28 01:35:27;;;;;;;9.13;6.78;;;;;;;29.94;70.30;100497.25;5054878;28;66323;-41
2023/07/28 01:37:59;;;;;;;10.65;7.47;;;;;;;29.77;69.85;100469.97;5056552;28;70416;-40
2023/07/28 01:40:34;;;;;;;11.50;6.95;;;;;;;29.91;69.93;100492.31;5057874;28;64386;-41
2023/07/28 01:43:05;;;;;;;12.48;7.10;;;;;;;29.80;69.71;100472.22;5052348;28;69885;-40
2023/07/28 01:45:37;;;;;;;12.57;7.43;;;;;;;29.99;70.14;100500.94;5038352;28;66137;-40
2023/07/28 01:48:12;;;;;;;10.07;6.40;;;;;;;30.00;70.52;100512.59;5049564;28;70019;-40
2023/07/28 01:50:43;;;;;;;11.32;7.20;;;;;;;30.04;69.98;100505.69;5045330;28;66258;-41
2023/07/28 01:53:15;;;;;;;12.02;6.65;;;;;;;30.05;70.00;100512.75;5040467;28;70281;-41
2023/07/28 01:55:46;;;;;;;9.30;6.00;;;;;;;30.07;70.05;100516.06;5038949;28;67015;-39
2023/07/28 01:58:21;;;;;;;11.70;6.35;;;;;;;30.00;70.31;100508.00;5045823;28;69721;-41
2023/07/28 02:00:52;;;;;;;13.45;6.32;;;;;;;30.10;70.37;100512.91;5054691;28;66070;-40
2023/07/28 02:03:24;;;;;;;9.10;6.47;;;;;;;30.01;70.23;100500.75;5051492;28;70185;-40
2023/07/28 02:05:56;;;;;;;9.73;6.18;;;;;;;30.04;70.03;100500.28;5037586;28;65946;-40
2023/07/28 02:08:27;;;;;;;10.38;6.63;;;;;;;30.16;70.42;100517.41;5038805;28;69959;-40
2023/07/28 02:10:59;;;;;;;8.32;6.18;;;;;;;30.13;70.23;100512.47;5038465;28;65321;-41
2023/07/28 02:13:30;;;;;;;6.97;5.57;;;;;;;30.20;70.05;100526.75;5052837;28;70278;-40
2023/07/28 02:16:04;;;;;;;8.95;5.80;;;;;;;30.25;70.23;100532.31;5045873;28;66777;-40
2023/07/28 02:18:36;;;;;;;9.02;5.60;;;;;;;30.24;70.70;100533.38;5048963;28;70721;-41
2023/07/28 02:21:10;;;;;;;;;;;;;;;29.90;72.14;100533.91;5055411;28;66291;-39
2023/07/28 02:23:42;;;;;;;8.60;5.25;;;;;;;30.17;70.59;100529.91;5052547;28;70459;-40
2023/07/28 02:26:13;;;;;;;12.75;5.50;;;;;;;30.20;70.60;100510.53;5052953;28;65471;-39
2023/07/28 02:28:45;;;;;;;7.13;5.75;;;;;;;30.31;70.87;100521.66;5050260;28;70425;-40
2023/07/28 02:31:16;;;;;;;10.57;5.82;;;;;;;30.33;70.53;100527.69;5047286;28;65707;-39
2023/07/28 02:33:48;;;;;;;8.38;5.88;;;;;;;30.36;70.83;100516.41;5055574;28;70691;-40
2023/07/28 02:36:20;;;;;;;12.93;5.43;;;;;;;29.99;70.38;100451.44;5052400;28;65779;-40
2023/07/28 02:38:51;;;;;;;;;;;;;;;30.03;72.17;100513.00;5046473;28;69689;-41
2023/07/28 02:41:22;;;;;;;9.57;4.60;;;;;;;30.38;70.76;100511.59;5054188;28;66028;-42
2023/07/28 02:43:54;;;;;;;7.65;5.07;;;;;;;30.35;70.58;100503.94;5054894;28;69247;-40
2023/07/28 02:46:25;;;;;;;8.10;4.75;;;;;;;30.39;70.41;100505.94;5058848;28;66756;-39
2023/07/28 02:48:57;;;;;;;8.05;4.85;;;;;;;30.48;70.38;100515.44;5056726;28;70174;-39
2023/07/28 02:51:29;;;;;;;8.75;5.22;;;;;;;30.34;70.66;100486.03;5058239;28;66330;-41
2023/07/28 02:54:00;;;;;;;9.95;4.60;;;;;;;30.54;70.19;100515.59;5063714;28;70359;-42
2023/07/28 02:56:37;;;;;;;6.28;5.13;;;;;;;30.56;70.62;100522.41;5062014;28;66600;-39
2023/07/28 02:59:13;;;;;;;9.55;4.63;;;;;;;30.57;70.53;100510.53;5033900;28;70101;-42
2023/07/28 03:01:45;;;;;;;7.30;4.45;;;;;;;30.61;70.43;100522.56;5055333;28;66647;-41
2023/07/28 03:04:17;;;;;;;9.95;4.90;;;;;;;30.62;70.29;100516.09;5060465;28;69166;-39
2023/07/28 03:07:11;;;;;;;7.13;4.55;;;;;;;30.62;70.51;100505.28;5060726;28;66078;-40
2023/07/28 03:09:44;;;;;;;10.40;5.10;;;;;;;30.67;70.47;100502.72;5042109;28;70211;-41
2023/07/28 03:12:16;;;;;;;6.75;4.60;;;;;;;30.66;70.60;100498.34;5059151;28;66129;-40
2023/07/28 03:14:47;;;;;;;7.38;4.75;;;;;;;30.71;70.38;100503.91;5064736;28;70214;-40
2023/07/28 03:17:19;;;;;;;7.25;5.20;;;;;;;30.72;70.11;100500.13;5060240;28;65213;-40
2023/07/28 03:19:51;;;;;;;5.28;4.18;;;;;;;30.71;70.35;100492.25;5051450;28;69884;-40
2023/07/28 03:22:22;;;;;;;6.97;4.13;;;;;;;30.77;70.28;100491.31;5055034;28;66417;-39
2023/07/28 03:24:54;;;;;;;7.03;4.50;;;;;;;30.82;70.15;100494.22;5052480;28;69506;-40
2023/07/28 03:27:28;;;;;;;10.07;4.50;;;;;;;30.85;70.07;100504.59;5040774;28;66710;-42
2023/07/28 03:30:01;;;;;;;4.95;4.13;;;;;;;30.65;70.12;100461.50;5060376;28;69214;-40
2023/07/28 03:32:33;;;;;;;8.60;4.03;;;;;;;30.89;70.03;100494.09;5056822;28;66167;-39
2023/07/28 03:35:05;;;;;;;7.43;4.40;;;;;;;30.92;70.42;100496.34;5062701;28;69471;-41
2023/07/28 03:37:41;;;;;;;6.35;3.85;;;;;;;30.89;70.15;100480.56;5057088;28;65547;-40
2023/07/28 03:40:13;;;;;;;8.02;4.60;;;;;;;30.98;70.41;100498.16;5069810;28;70514;-42
2023/07/28 03:42:50;;;;;;;4.35;3.95;;;;;;;30.96;70.18;100489.44;5057816;28;66216;-41
2023/07/28 03:45:22;;;;;;;7.60;4.63;;;;;;;30.91;70.10;100483.88;5059500;28;69201;-41
2023/07/28 03:47:54;;;;;;;6.78;3.90;;;;;;;30.97;70.16;100491.06;5056839;28;66005;-41
2023/07/28 03:50:26;;;;;;;8.93;4.60;;;;;;;31.00;70.19;100481.66;5056939;28;70168;-41
2023/07/28 03:52:57;;;;;;;5.30;4.28;;;;;;;31.10;69.93;100474.63;5052815;28;66471;-42
2023/07/28 03:55:29;;;;;;;5.22;4.45;;;;;;;31.11;69.99;100481.69;5059765;28;70069;-41
2023/07/28 03:58:00;;;;;;;5.90;4.32;;;;;;;30.97;70.14;100447.75;5041531;28;65475;-40
2023/07/28 04:00:32;;;;;;;5.05;3.40;;;;;;;31.14;70.21;100464.97;5068448;28;69747;-40
2023/07/28 04:03:03;;;;;;;7.13;4.38;;;;;;;31.05;69.81;100443.88;5057174;28;64837;-41
2023/07/28 04:05:37;;;;;;;6.57;4.47;;;;;;;31.16;69.72;100457.44;5055861;28;69706;-40
2023/07/28 04:08:09;;;;;;;6.15;4.43;;;;;;;31.24;69.86;100463.59;5058968;28;66304;-41
2023/07/28 04:10:40;;;;;;;5.82;3.85;;;;;;;31.25;69.71;100449.81;5053011;28;69903;-40
2023/07/28 04:13:13;;;;;;;6.90;3.95;;;;;;;31.26;70.01;100451.47;5069662;28;65731;-40
2023/07/28 04:15:44;;;;;;;9.95;3.88;;;;;;;31.26;69.89;100450.63;5058336;28;70240;-39
2023/07/28 04:18:17;;;;;;;8.70;3.80;;;;;;;31.26;69.94;100442.50;5052687;28;65372;-41
2023/07/28 04:20:49;;;;;;;7.35;3.72;;;;;;;31.34;69.37;100453.00;5049697;28;70424;-40
2023/07/28 04:23:20;;;;;;;9.40;3.40;;;;;;;31.35;69.74;100443.81;5052989;28;66440;-40
2023/07/28 04:25:52;;;;;;;5.32;3.65;;;;;;;31.37;69.45;100441.72;5053890;28;69736;-40
2023/07/28 04:28:24;;;;;;;10.77;3.65;;;;;;;31.33;69.68;100432.38;5053509;28;66577;-40
2023/07/28 04:30:56;;;;;;;9.88;3.95;;;;;;;31.42;69.83;100443.72;5051932;28;69988;-44
2023/07/28 04:33:47;;;;;;;9.52;4.07;;;;;;;31.43;69.81;100443.50;5052580;28;66412;-41
2023/07/28 04:36:19;;;;;;;5.60;3.47;;;;;;;31.45;69.40;100444.06;5059114;28;70111;-41
2023/07/28 04:38:50;;;;;;;5.45;3.45;;;;;;;31.41;69.62;100434.78;5053238;28;66072;-40
2023/07/28 04:41:22;;;;;;;;;;;;;;;31.16;70.72;100435.78;5053035;28;69998;-40
2023/07/28 04:43:54;;;;;;;;;;;;;;;31.12;71.40;100437.31;5053842;28;66707;-40
2023/07/28 04:46:27;;;;;;;4.70;3.25;;;;;;;31.47;69.53;100431.13;5052268;28;70338;-40
2023/07/28 04:48:58;;;;;;;;;;;;;;;31.18;70.95;100422.00;5055935;28;65543;-40
2023/07/28 04:51:55;;;;;;;4.78;3.25;;;;;;;31.49;69.48;100410.03;5057333;28;69517;-41
2023/07/28 04:54:42;;;;;;;4.18;3.17;;;;;;;31.52;69.78;100419.59;5050008;28;66296;-40
2023/07/28 04:57:13;;;;;;;4.72;3.17;;;;;;;31.42;69.60;100401.19;5058649;28;70171;-42
2023/07/28 04:59:45;;;;;;;4.53;3.25;;;;;;;31.54;69.11;100403.91;5055027;28;65557;-42
2023/07/28 05:02:18;;;;;;;10.07;3.58;;;;;;;30.98;69.38;100313.97;5047499;28;70217;-41
2023/07/28 05:04:50;;;;;;;10.27;3.70;;;;;;;31.57;69.61;100404.25;5054339;28;66401;-42
2023/07/28 05:07:21;;;;;;;5.28;3.53;;;;;;;31.58;69.55;100399.66;5055916;28;68899;-40
2023/07/28 05:09:53;;;;;;;7.50;3.60;;;;;;;31.61;69.36;100400.00;5055491;28;65205;-43
2023/07/28 05:12:28;;;;;;;4.18;3.05;;;;;;;31.64;69.31;100392.47;5047693;28;69632;-41
2023/07/28 05:15:00;;;;;;;3.58;3.05;;;;;;;31.64;69.04;100387.84;5052423;28;65745;-42
2023/07/28 05:17:31;;;;;;;8.18;4.03;;;;;;;31.69;69.15;100392.59;5060681;28;69344;-43
2023/07/28 05:20:23;;;;;;;4.63;3.85;;;;;;;31.47;69.30;100360.66;5050222;28;66519;-41
2023/07/28 05:23:00;;;;;;;6.63;3.47;;;;;;;31.71;69.27;100376.91;5057002;28;69979;-42
2023/07/28 05:25:32;;;;;;;4.90;3.50;;;;;;;31.67;69.31;100364.88;5056270;28;66218;-41
2023/07/28 05:28:03;;;;;;;3.33;3.03;;;;;;;31.47;69.56;100321.88;5058314;28;70221;-41
2023/07/28 05:30:38;;;;;;;6.03;2.95;;;;;;;31.78;69.22;100362.13;5057274;28;66035;-41
2023/07/28 05:33:09;;;;;;;5.60;3.70;;;;;;;31.69;69.23;100346.50;5059027;28;69919;-42
2023/07/28 05:35:48;;;;;;;4.35;3.17;;;;;;;31.82;69.48;100346.22;5059826;28;66669;-40
2023/07/28 05:38:20;;;;;;;4.13;2.90;;;;;;;31.85;69.33;100348.47;5058815;28;70411;-43
2023/07/28 05:41:06;;;;;;;5.47;3.60;;;;;;;31.80;69.44;100338.31;5061785;28;66695;-40
2023/07/28 05:43:39;;;;;;;5.35;3.53;;;;;;;31.89;69.37;100332.53;5059734;28;69973;-42
2023/07/28 05:46:10;;;;;;;4.22;3.53;;;;;;;31.87;69.39;100316.47;5056476;28;66695;-41
2023/07/28 05:48:42;;;;;;;5.65;3.63;;;;;;;31.91;69.21;100323.13;5047877;28;69315;-41
2023/07/28 05:51:13;;;;;;;4.72;2.92;;;;;;;31.90;69.26;100324.16;5069262;28;66081;-41
2023/07/28 05:53:45;;;;;;;5.68;3.20;;;;;;;31.85;69.38;100313.19;5054180;28;70529;-41
2023/07/28 05:56:20;;;;;;;5.90;3.30;;;;;;;31.96;69.77;100333.25;5053481;28;66453;-43
2023/07/28 05:58:52;;;;;;;4.93;3.05;;;;;;;31.91;69.64;100314.97;5049712;28;69743;-41
2023/07/28 06:01:26;;;;;;;5.68;3.08;;;;;;;31.97;70.05;100324.84;5052371;28;66235;-41
2023/07/28 06:04:23;;;;;;;6.45;3.15;;;;;;;31.94;70.31;100317.19;5047288;28;70005;-41
2023/07/28 06:06:58;;;;;;;5.00;3.00;;;;;;;31.99;69.95;100314.59;5053369;28;66114;-42
2023/07/28 06:09:30;;;;;;;4.97;3.10;;;;;;;31.99;69.94;100303.75;5051420;28;69826;-42
2023/07/28 06:12:01;;;;;;;6.35;3.10;;;;;;;32.00;69.73;100289.09;5051826;28;65537;-41
2023/07/28 06:14:33;;;;;;;2.83;2.35;;;;;;;32.01;69.75;100284.50;5051817;28;70547;-41
2023/07/28 06:17:09;;;;;;;6.10;3.05;;;;;;;32.04;69.59;100289.47;5051845;28;66704;-41
2023/07/28 06:19:40;;;;;;;4.93;2.90;;;;;;;32.04;69.43;100268.56;5051504;28;69287;-43
2023/07/28 06:22:15;;;;;;;3.10;2.65;;;;;;;32.07;69.48;100274.56;5052832;28;66598;-40
2023/07/28 06:24:48;;;;;;;7.18;2.72;;;;;;;31.89;69.45;100232.97;5052608;28;70085;-42
2023/07/28 06:27:19;;;;;;;4.63;3.03;;;;;;;31.98;69.51;100245.13;5052296;28;66344;-42
2023/07/28 06:29:51;;;;;;;4.97;2.95;;;;;;;32.13;69.33;100254.63;5049742;28;70374;-40
2023/07/28 06:32:23;;;;;;;4.68;3.35;;;;;;;32.15;69.36;100244.31;5051895;28;65483;-41
2023/07/28 06:34:55;;;;;;;3.40;2.90;;;;;;;32.08;69.47;100227.41;5052582;28;71466;-41
2023/07/28 06:37:26;;;;;;;;;;;;;;;31.90;70.68;100239.22;5052628;28;66507;-40
2023/07/28 06:39:57;;;;;;;3.25;2.83;;;;;;;32.19;69.67;100235.47;5054584;28;70324;-41
2023/07/28 06:42:28;;;;;;;;;;;;;;;31.93;70.82;100226.06;5070005;28;65909;-43
2023/07/28 06:45:02;;;;;;;4.03;3.05;;;;;;;32.22;69.63;100232.25;5050725;28;70804;-42
2023/07/28 06:47:34;;;;;;;3.78;2.70;;;;;;;32.30;69.31;100241.06;5049933;28;66556;-41
2023/07/28 06:50:06;;;;;;;4.93;3.92;;;;;;;32.09;69.55;100196.47;5051788;28;69106;-42
2023/07/28 06:52:37;;;;;;;4.97;3.80;;;;;;;32.25;69.35;100214.66;5051217;28;66742;-40
2023/07/28 06:55:09;;;;;;;5.75;2.85;;;;;;;32.35;69.76;100220.28;5053499;28;69492;-41
2023/07/28 06:57:41;;;;;;;4.43;3.40;;;;;;;32.41;69.30;100203.00;5047393;28;66344;-41
2023/07/28 07:00:14;;;;;;;5.80;3.65;;;;;;;32.07;69.63;100147.06;5051851;28;70244;-41
2023/07/28 07:02:46;;;;;;;4.53;3.80;;;;;;;32.49;69.66;100205.31;5036405;28;65420;-41
2023/07/28 07:05:18;;;;;;;4.22;3.70;;;;;;;32.53;69.63;100202.13;5051852;28;69800;-41
2023/07/28 07:07:49;;;;;;;6.05;3.90;;;;;;;32.39;69.35;100183.41;5050344;28;65864;-41
2023/07/28 07:10:21;;;;;;;3.80;3.40;;;;;;;32.58;69.44;100203.00;5050828;28;69479;-41
2023/07/28 07:12:53;;;;;;;5.07;3.88;;;;;;;32.57;69.22;100185.09;5054513;28;66623;-41
2023/07/28 07:15:24;;;;;;;5.43;3.55;;;;;;;32.68;69.30;100186.88;5054016;28;70017;-41
2023/07/28 07:17:55;;;;;;;;;;;;;;;32.44;70.45;100180.78;5052065;28;66789;-42
2023/07/28 07:20:27;;;;;;;5.13;3.85;;;;;;;32.74;69.37;100181.53;5054938;28;70033;-40
2023/07/28 07:22:58;;;;;;;5.53;3.70;;;;;;;32.78;69.23;100180.75;5050918;28;66005;-41
2023/07/28 07:25:30;;;;;;;7.10;4.25;;;;;;;32.81;69.20;100184.88;5054071;28;69215;-41
2023/07/28 07:28:04;;;;;;;5.70;3.90;;;;;;;32.86;68.86;100174.91;5065489;28;66536;-40
2023/07/28 07:30:36;;;;;;;5.03;4.25;;;;;;;32.85;69.29;100181.41;5051752;28;70298;-41
2023/07/28 07:33:07;;;;;;;4.80;4.25;;;;;;;32.86;69.37;100171.38;5048289;28;66692;-41
2023/07/28 07:35:38;;;;;;;10.40;4.70;;;;;;;32.93;68.72;100172.84;5055747;28;69905;-41
2023/07/28 07:38:10;;;;;;;4.93;4.53;;;;;;;32.97;68.70;100172.34;5057220;28;66385;-43
2023/07/28 07:40:42;;;;;;;5.05;4.65;;;;;;;32.93;68.57;100166.56;5058406;28;69102;-41
2023/07/28 07:43:18;;;;;;;;;;;;;;;32.74;69.84;100173.38;5058225;28;65980;-41
2023/07/28 07:45:54;;;;;;;8.00;5.53;;;;;;;33.01;68.65;100170.78;5053441;28;70377;-41
2023/07/28 07:48:26;;;;;;;6.65;5.93;;;;;;;32.94;68.68;100158.16;5058055;28;65756;-41
2023/07/28 07:50:57;;;;;;;6.53;5.93;;;;;;;33.07;68.63;100172.47;5046238;28;70549;-41
2023/07/28 07:53:28;;;;;;;;;;;;;;;32.85;69.67;100181.41;5051167;28;66678;-41
2023/07/28 07:56:00;;;;;;;11.30;6.65;;;;;;;32.81;68.67;100123.22;5059242;28;70790;-40
2023/07/28 07:58:32;;;;;;;8.98;7.68;;;;;;;33.16;68.28;100170.97;5058923;28;65955;-41
2023/07/28 08:01:04;;;;;;;10.27;7.03;;;;;;;33.20;68.15;100169.38;5050369;28;70116;-40
2023/07/28 08:03:38;;;;;;;;;;;;;;;32.98;68.62;100165.81;5042017;28;66597;-41
2023/07/28 08:06:11;;;;;;;8.23;7.28;;;;;;;33.22;67.92;100169.97;5049560;28;70415;-42
2023/07/28 08:08:43;;;;;;;7.63;6.93;;;;;;;33.16;67.88;100149.25;5054231;28;66661;-42
2023/07/28 08:11:14;;;;;;;8.65;7.90;;;;;;;33.12;67.97;100138.03;5051258;28;69663;-41
2023/07/28 08:13:48;;;;;;;8.20;7.40;;;;;;;33.27;67.66;100151.00;5055326;28;67199;-41
2023/07/28 08:16:19;;;;;;;9.25;8.13;;;;;;;33.32;67.59;100163.81;5058329;28;69862;-40
2023/07/28 08:18:51;;;;;;;15.20;7.82;;;;;;;33.29;67.69;100151.59;5054716;28;65732;-41
2023/07/28 08:21:22;;;;;;;9.20;8.30;;;;;;;33.27;67.25;100151.00;5054407;28;69228;-42
2023/07/28 08:23:53;;;;;;;;;;;;;;;33.12;67.94;100158.97;5048352;28;66480;-42
2023/07/28 08:26:24;;;;;;;10.48;8.70;;;;;;;33.35;67.43;100153.28;5052926;28;70543;-41
2023/07/28 08:28:56;;;;;;;16.00;9.05;;;;;;;33.37;67.28;100164.69;5047811;28;66263;-42
2023/07/28 08:31:27;;;;;;;12.13;9.05;;;;;;;33.38;67.51;100163.63;5058570;28;69907;-41
2023/07/28 08:34:02;;;;;;;9.93;9.15;;;;;;;33.42;67.15;100160.41;5047542;28;43134;-41
2023/07/28 08:36:34;;;;;;;11.60;9.50;;;;;;;33.37;67.01;100151.09;5046075;28;70322;-41
2023/07/28 08:39:06;;;;;;;13.77;10.18;;;;;;;33.42;67.28;100152.25;5048557;28;66642;-42
2023/07/28 08:41:38;;;;;;;11.25;9.55;;;;;;;33.42;67.37;100163.13;5058887;28;70909;-43
2023/07/28 08:44:09;;;;;;;17.60;10.38;;;;;;;33.38;67.04;100160.91;5062560;28;65034;-41
2023/07/28 08:46:41;;;;;;;11.85;10.50;;;;;;;33.37;67.25;100155.72;5053396;28;70481;-42
2023/07/28 08:49:13;;;;;;;12.75;11.02;;;;;;;33.44;66.99;100161.78;5061538;28;66190;-41
2023/07/28 08:51:50;;;;;;;14.20;11.10;;;;;;;32.76;66.50;100062.59;5061171;28;70198;-41
2023/07/28 08:54:22;;;;;;;14.77;11.27;;;;;;;33.44;67.09;100160.97;5058277;28;65228;-41
2023/07/28 08:56:54;;;;;;;14.52;11.38;;;;;;;33.36;66.60;100144.03;5062505;28;70220;-42
2023/07/28 08:59:29;;;;;;;14.98;12.02;;;;;;;33.45;66.65;100162.63;5059515;28;65854;-41
2023/07/28 09:02:01;;;;;;;19.50;11.75;;;;;;;33.47;66.70;100155.84;5060315;28;69767;-41
2023/07/28 09:04:32;;;;;;;;;;;;;;;33.23;67.21;100160.72;5059443;28;66416;-41
2023/07/28 09:07:06;;;;;;;13.93;11.82;;;;;;;33.36;67.00;100144.03;5055734;28;70345;-43
2023/07/28 09:09:37;;;;;;;18.60;12.55;;;;;;;33.41;66.42;100139.75;5061796;28;66657;-41
2023/07/28 09:12:09;;;;;;;15.85;11.82;;;;;;;33.36;66.84;100133.16;5059392;28;69304;-42
2023/07/28 09:14:41;;;;;;;14.55;12.10;;;;;;;33.49;66.75;100152.84;5057479;28;65480;-41
2023/07/28 09:17:13;;;;;;;15.50;12.18;;;;;;;33.35;66.54;100126.09;5058109;28;70083;-41
2023/07/28 09:19:56;;;;;;;14.02;12.55;;;;;;;33.39;66.42;100137.28;5049420;28;66283;-40
2023/07/28 09:22:30;;;;;;;16.42;12.93;;;;;;;33.41;66.51;100139.75;5057118;28;69929;-42
2023/07/28 09:25:13;;;;;;;15.25;12.73;;;;;;;32.99;66.31;100073.19;5060484;28;65774;-42
2023/07/28 09:28:03;;;;;;;17.00;13.45;;;;;;;33.35;66.19;100153.28;5050136;28;70182;-42
2023/07/28 09:30:49;;;;;;;16.80;13.60;;;;;;;32.87;66.11;100077.94;5053777;28;66865;-41
2023/07/28 09:33:32;;;;;;;21.00;13.82;;;;;;;32.53;66.24;100010.16;5058639;28;69329;-41
2023/07/28 09:36:11;;;;;;;16.73;13.82;;;;;;;33.25;66.33;100136.84;5040512;28;66646;-41
2023/07/28 09:38:43;;;;;;;19.00;14.32;;;;;;;33.37;66.38;100169.31;5053942;28;70241;-42
2023/07/28 09:41:14;;;;;;;16.42;13.82;;;;;;;33.48;66.49;100192.00;5052702;28;66221;-42
2023/07/28 09:43:49;;;;;;;18.27;13.77;;;;;;;33.39;66.22;100202.50;5054226;28;69934;-41
2023/07/28 09:46:23;;;;;;;15.02;13.55;;;;;;;33.25;66.26;100183.03;5053731;28;65830;-41
2023/07/28 09:48:59;;;;;;;15.90;13.23;;;;;;;33.03;66.25;100145.00;5053449;28;70673;-41
2023/07/28 09:51:32;;;;;;;18.75;14.52;;;;;;;33.09;66.71;100176.59;5053464;28;66468;-41
2023/07/28 09:54:13;;;;;;;18.60;13.95;;;;;;;33.48;65.97;100239.03;5049445;28;69857;-41
2023/07/28 09:56:47;;;;;;;21.13;12.80;;;;;;;33.18;66.52;100190.56;5052738;28;66262;-41
2023/07/28 09:59:21;;;;;;;14.32;12.73;;;;;;;33.26;66.42;100202.88;5054441;28;69559;-42
2023/07/28 10:01:52;;;;;;;16.90;13.73;;;;;;;33.49;66.44;100245.31;5052907;28;66256;-41
2023/07/28 10:04:24;;;;;;;20.33;13.38;;;;;;;33.44;66.22;100237.94;5053614;28;70345;-42
2023/07/28 10:06:56;;;;;;;19.45;12.77;;;;;;;33.46;66.82;100233.06;5051724;28;65407;-40
2023/07/28 10:09:30;;;;;;;15.88;12.75;;;;;;;33.46;66.57;100224.06;5053486;28;69623;-41
2023/07/28 10:12:03;;;;;;;16.33;13.45;;;;;;;33.40;66.56;100225.91;5052562;28;67164;-41
2023/07/28 10:14:38;;;;;;;18.40;12.40;;;;;;;32.43;66.37;100069.72;5048316;28;70916;-43
2023/07/28 10:17:17;;;;;;;18.08;11.98;;;;;;;33.24;66.32;100205.88;5058377;28;66023;-42
2023/07/28 10:19:48;;;;;;;18.08;13.35;;;;;;;33.44;66.34;100237.09;5053839;28;69350;-42
2023/07/28 10:22:20;;;;;;;18.13;12.10;;;;;;;33.42;66.52;100239.25;5056005;28;65815;-42
2023/07/28 10:24:52;;;;;;;15.32;12.32;;;;;;;33.37;67.27;100234.56;5052900;28;70093;-44
2023/07/28 10:27:38;;;;;;;23.73;11.80;;;;;;;33.32;67.88;100240.78;5053299;28;66433;-41
2023/07/28 10:30:14;;;;;;;20.48;11.48;;;;;;;32.87;67.85;100162.94;5055490;28;69373;-41
2023/07/28 10:32:52;;;;;;;14.90;11.30;;;;;;;33.32;67.87;100240.78;5049043;28;65874;-42
2023/07/28 10:35:29;;;;;;;21.08;11.80;;;;;;;33.32;67.62;100251.66;5056197;28;69907;-45
2023/07/28 10:38:32;;;;;;;24.05;11.45;;;;;;;33.19;70.01;100271.03;5050851;28;66099;-43
2023/07/28 10:41:09;;;;;;;25.08;11.07;;;;;;;32.60;69.16;100194.63;5050924;28;69030;-42
2023/07/28 10:43:42;;;;;;;13.90;10.20;;;;;;;33.18;68.45;100296.53;5051922;28;66794;-45
2023/07/28 10:46:17;;;;;;;23.98;11.05;;;;;;;33.30;68.51;100319.03;5051297;28;69149;-42
2023/07/28 10:48:50;;;;;;;19.00;10.43;;;;;;;33.26;69.01;100327.91;5052087;28;66159;-44
2023/07/28 10:51:33;;;;;;;19.10;10.40;;;;;;;33.25;69.36;100329.81;5051927;28;69194;-44
2023/07/28 10:54:05;;;;;;;11.52;9.75;;;;;;;33.16;69.44;100325.88;5050365;28;65737;-44
2023/07/28 10:56:36;;;;;;;13.68;9.75;;;;;;;33.22;69.58;100335.75;5054560;28;68676;-46
2023/07/28 10:59:10;;;;;;;20.95;9.52;;;;;;;33.22;69.63;100338.47;5054102;28;65446;-43
2023/07/28 11:01:42;;;;;;;12.00;9.55;;;;;;;33.20;69.71;100328.94;5057141;28;70439;-43
2023/07/28 11:04:19;;;;;;;18.65;9.77;;;;;;;33.18;70.33;100340.03;5054751;28;65544;-42
2023/07/28 11:06:52;;;;;;;13.00;9.40;;;;;;;33.02;70.19;100308.28;5057608;28;70128;-43
2023/07/28 11:09:24;;;;;;;18.42;9.57;;;;;;;33.13;70.03;100331.81;5060157;28;66517;-44
2023/07/28 11:11:55;;;;;;;14.55;9.68;;;;;;;33.06;70.22;100356.44;5057372;28;70508;-42
2023/07/28 11:14:29;;;;;;;13.98;9.18;;;;;;;33.07;70.55;100385.28;5047184;28;66568;-44
2023/07/28 11:17:01;;;;;;;12.13;8.65;;;;;;;33.02;70.07;100373.50;5061667;28;70290;-42
2023/07/28 11:19:34;;;;;;;8.18;6.95;;;;;;;32.61;70.08;100307.59;5068330;28;66071;-44
2023/07/28 11:22:06;;;;;;;6.90;6.25;;;;;;;33.07;69.69;100379.00;5046665;28;70101;-42
2023/07/28 11:24:37;;;;;;;;;;;;;;;32.71;71.48;100367.53;5061033;28;66095;-43
2023/07/28 11:27:09;;;;;;;14.68;6.78;;;;;;;32.85;69.89;100378.91;5055696;28;70861;-43
2023/07/28 11:29:41;;;;;;;9.02;6.28;;;;;;;32.97;69.82;100433.97;5049218;28;66675;-43
2023/07/28 11:32:16;;;;;;;12.70;5.40;;;;;;;32.86;69.24;100422.09;5042345;28;69901;-43
2023/07/28 11:34:49;;;;;;;12.73;6.32;;;;;;;32.33;69.58;100355.41;5056776;28;67066;-43
2023/07/28 11:37:20;;;;;;;6.28;5.68;;;;;;;32.88;69.71;100452.56;5058728;28;70065;-43
2023/07/28 11:39:51;;;;;;;;;;;;;;;32.53;71.67;100451.91;5049114;28;66096;-41
2023/07/28 11:42:23;;;;;;;8.55;5.80;;;;;;;32.72;70.08;100448.75;5054704;28;70020;-43
2023/07/28 11:44:54;;;;;;;13.77;7.13;;;;;;;32.60;70.57;100439.00;5058435;28;65537;-44
2023/07/28 11:47:26;;;;;;;7.75;6.63;;;;;;;32.66;70.29;100438.03;5054474;28;70149;-44
2023/07/28 11:50:01;;;;;;;5.43;5.03;;;;;;;32.63;70.68;100427.66;5055669;28;66626;-44
2023/07/28 11:52:37;;;;;;;6.82;6.00;;;;;;;31.97;71.43;100327.56;5060572;28;69247;-44